sensor_id;sensor_type;location;lat;lon;timestamp;P1;durP1;ratioP1;P2;durP2;ratioP2
25667;SDS011;18003;-33.830;151.202;2022-08-23T00:01:55;3.47;;;1.98;;
25667;SDS011;18003;-33.830;151.202;2022-08-23T00:04:34;6.62;;;2.17;;
25667;SDS011;18003;-33.830;151.202;2022-08-23T00:06:59;2.08;;;1.80;;
25667;SDS011;18003;-33.830;151.202;2022-08-23T00:09:30;2.02;;;1.82;;
25667;SDS011;18003;-33.830;151.202;2022-08-23T00:12:04;5.20;;;2.37;;
25667;SDS011;18003;-33.830;151.202;2022-08-23T00:14:35;2.42;;;1.98;;
25667;SDS011;18003;-33.830;151.202;2022-08-23T00:17:06;2.12;;;1.80;;
25667;SDS011;18003;-33.830;151.202;2022-08-23T00:19:37;3.50;;;2.00;;
25667;SDS011;18003;-33.830;151.202;2022-08-23T00:22:07;2.02;;;1.90;;
25667;SDS011;18003;-33.830;151.202;2022-08-23T00:24:39;4.90;;;2.30;;
25667;SDS011;18003;-33.830;151.202;2022-08-23T00:27:11;2.62;;;1.80;;
25667;SDS011;18003;-33.830;151.202;2022-08-23T00:32:15;3.58;;;1.60;;
25667;SDS011;18003;-33.830;151.202;2022-08-23T00:34:46;3.65;;;2.00;;
25667;SDS011;18003;-33.830;151.202;2022-08-23T00:37:16;3.00;;;1.60;;
25667;SDS011;18003;-33.830;151.202;2022-08-23T00:39:47;32.45;;;3.37;;
25667;SDS011;18003;-33.830;151.202;2022-08-23T00:45:26;6.90;;;1.95;;
25667;SDS011;18003;-33.830;151.202;2022-08-23T00:48:13;4.58;;;1.77;;
25667;SDS011;18003;-33.830;151.202;2022-08-23T00:51:04;3.83;;;1.75;;
25667;SDS011;18003;-33.830;151.202;2022-08-23T00:53:31;2.67;;;1.60;;
25667;SDS011;18003;-33.830;151.202;2022-08-23T00:56:03;3.35;;;1.60;;
25667;SDS011;18003;-33.830;151.202;2022-08-23T00:58:35;2.55;;;1.80;;
25667;SDS011;18003;-33.830;151.202;2022-08-23T01:01:06;2.50;;;1.80;;
25667;SDS011;18003;-33.830;151.202;2022-08-23T01:03:37;4.87;;;1.90;;
25667;SDS011;18003;-33.830;151.202;2022-08-23T01:06:10;3.55;;;1.72;;
25667;SDS011;18003;-33.830;151.202;2022-08-23T01:08:47;3.05;;;1.67;;
25667;SDS011;18003;-33.830;151.202;2022-08-23T01:11:19;4.65;;;2.20;;
25667;SDS011;18003;-33.830;151.202;2022-08-23T01:13:47;2.62;;;2.10;;
25667;SDS011;18003;-33.830;151.202;2022-08-23T01:18:47;3.65;;;2.20;;
25667;SDS011;18003;-33.830;151.202;2022-08-23T01:21:26;4.08;;;2.33;;
25667;SDS011;18003;-33.830;151.202;2022-08-23T01:24:02;3.52;;;2.10;;
25667;SDS011;18003;-33.830;151.202;2022-08-23T01:26:33;3.42;;;2.02;;
25667;SDS011;18003;-33.830;151.202;2022-08-23T01:29:03;2.30;;;1.80;;
25667;SDS011;18003;-33.830;151.202;2022-08-23T01:31:34;2.33;;;1.87;;
25667;SDS011;18003;-33.830;151.202;2022-08-23T01:34:11;30.85;;;2.95;;
25667;SDS011;18003;-33.830;151.202;2022-08-23T01:36:36;15.53;;;2.40;;
25667;SDS011;18003;-33.830;151.202;2022-08-23T01:39:07;6.53;;;2.10;;
25667;SDS011;18003;-33.830;151.202;2022-08-23T01:41:37;5.65;;;1.85;;
25667;SDS011;18003;-33.830;151.202;2022-08-23T01:44:08;4.87;;;1.80;;
25667;SDS011;18003;-33.830;151.202;2022-08-23T01:46:41;7.97;;;1.87;;
25667;SDS011;18003;-33.830;151.202;2022-08-23T01:49:11;4.83;;;1.50;;
25667;SDS011;18003;-33.830;151.202;2022-08-23T01:51:41;3.20;;;1.57;;
25667;SDS011;18003;-33.830;151.202;2022-08-23T01:54:11;2.17;;;1.52;;
25667;SDS011;18003;-33.830;151.202;2022-08-23T01:56:41;1.52;;;1.42;;
25667;SDS011;18003;-33.830;151.202;2022-08-23T01:59:12;2.95;;;1.60;;
25667;SDS011;18003;-33.830;151.202;2022-08-23T02:01:42;2.37;;;1.62;;
25667;SDS011;18003;-33.830;151.202;2022-08-23T02:04:12;2.20;;;1.65;;
25667;SDS011;18003;-33.830;151.202;2022-08-23T02:06:42;3.30;;;1.60;;
25667;SDS011;18003;-33.830;151.202;2022-08-23T02:09:12;4.78;;;1.70;;
25667;SDS011;18003;-33.830;151.202;2022-08-23T02:11:42;2.77;;;1.70;;
25667;SDS011;18003;-33.830;151.202;2022-08-23T02:14:14;2.83;;;1.70;;
25667;SDS011;18003;-33.830;151.202;2022-08-23T02:19:14;3.87;;;1.70;;
25667;SDS011;18003;-33.830;151.202;2022-08-23T02:21:45;3.52;;;1.92;;
25667;SDS011;18003;-33.830;151.202;2022-08-23T02:24:19;3.30;;;1.70;;
25667;SDS011;18003;-33.830;151.202;2022-08-23T02:26:50;2.52;;;1.60;;
25667;SDS011;18003;-33.830;151.202;2022-08-23T02:29:22;2.70;;;1.87;;
25667;SDS011;18003;-33.830;151.202;2022-08-23T02:31:54;2.08;;;1.92;;
25667;SDS011;18003;-33.830;151.202;2022-08-23T02:34:25;2.83;;;2.20;;
25667;SDS011;18003;-33.830;151.202;2022-08-23T02:36:56;2.42;;;1.80;;
25667;SDS011;18003;-33.830;151.202;2022-08-23T02:39:26;2.15;;;1.90;;
25667;SDS011;18003;-33.830;151.202;2022-08-23T02:41:56;2.50;;;1.70;;
25667;SDS011;18003;-33.830;151.202;2022-08-23T02:44:26;3.17;;;1.90;;
25667;SDS011;18003;-33.830;151.202;2022-08-23T02:46:56;2.92;;;1.62;;
25667;SDS011;18003;-33.830;151.202;2022-08-23T02:49:26;3.05;;;1.98;;
25667;SDS011;18003;-33.830;151.202;2022-08-23T02:51:58;4.40;;;1.80;;
25667;SDS011;18003;-33.830;151.202;2022-08-23T02:54:27;2.25;;;1.60;;
25667;SDS011;18003;-33.830;151.202;2022-08-23T02:56:57;2.92;;;1.65;;
25667;SDS011;18003;-33.830;151.202;2022-08-23T02:59:28;1.80;;;1.70;;
25667;SDS011;18003;-33.830;151.202;2022-08-23T03:01:58;1.62;;;1.52;;
25667;SDS011;18003;-33.830;151.202;2022-08-23T03:04:28;1.90;;;1.70;;
25667;SDS011;18003;-33.830;151.202;2022-08-23T03:06:59;3.20;;;1.62;;
25667;SDS011;18003;-33.830;151.202;2022-08-23T03:09:29;2.30;;;1.60;;
25667;SDS011;18003;-33.830;151.202;2022-08-23T03:11:59;3.85;;;1.65;;
25667;SDS011;18003;-33.830;151.202;2022-08-23T03:14:29;7.90;;;2.37;;
25667;SDS011;18003;-33.830;151.202;2022-08-23T03:16:59;18.67;;;3.27;;
25667;SDS011;18003;-33.830;151.202;2022-08-23T03:19:29;11.53;;;2.20;;
25667;SDS011;18003;-33.830;151.202;2022-08-23T03:21:59;15.55;;;2.80;;
25667;SDS011;18003;-33.830;151.202;2022-08-23T03:24:29;12.15;;;2.65;;
25667;SDS011;18003;-33.830;151.202;2022-08-23T03:26:59;11.73;;;2.30;;
25667;SDS011;18003;-33.830;151.202;2022-08-23T03:29:29;12.55;;;2.40;;
25667;SDS011;18003;-33.830;151.202;2022-08-23T03:31:59;10.05;;;2.50;;
25667;SDS011;18003;-33.830;151.202;2022-08-23T03:34:30;15.43;;;2.85;;
25667;SDS011;18003;-33.830;151.202;2022-08-23T03:37:00;11.22;;;2.15;;
25667;SDS011;18003;-33.830;151.202;2022-08-23T03:39:30;15.30;;;2.90;;
25667;SDS011;18003;-33.830;151.202;2022-08-23T03:42:00;13.45;;;2.65;;
25667;SDS011;18003;-33.830;151.202;2022-08-23T03:44:30;13.72;;;2.75;;
25667;SDS011;18003;-33.830;151.202;2022-08-23T03:47:00;12.95;;;2.80;;
25667;SDS011;18003;-33.830;151.202;2022-08-23T03:49:31;9.85;;;2.47;;
25667;SDS011;18003;-33.830;151.202;2022-08-23T03:52:01;12.55;;;2.65;;
25667;SDS011;18003;-33.830;151.202;2022-08-23T03:54:33;8.37;;;2.17;;
25667;SDS011;18003;-33.830;151.202;2022-08-23T03:57:04;10.23;;;2.20;;
25667;SDS011;18003;-33.830;151.202;2022-08-23T03:59:36;5.45;;;2.00;;
25667;SDS011;18003;-33.830;151.202;2022-08-23T04:02:06;9.95;;;2.20;;
25667;SDS011;18003;-33.830;151.202;2022-08-23T04:04:36;8.30;;;2.10;;
25667;SDS011;18003;-33.830;151.202;2022-08-23T04:07:10;7.67;;;2.35;;
25667;SDS011;18003;-33.830;151.202;2022-08-23T04:09:40;7.45;;;1.85;;
25667;SDS011;18003;-33.830;151.202;2022-08-23T04:12:10;7.50;;;1.92;;
25667;SDS011;18003;-33.830;151.202;2022-08-23T04:14:40;7.10;;;1.50;;
25667;SDS011;18003;-33.830;151.202;2022-08-23T04:17:11;7.53;;;1.67;;
25667;SDS011;18003;-33.830;151.202;2022-08-23T04:19:41;8.68;;;1.52;;
25667;SDS011;18003;-33.830;151.202;2022-08-23T04:22:11;7.72;;;1.47;;
25667;SDS011;18003;-33.830;151.202;2022-08-23T04:24:44;7.78;;;1.27;;
25667;SDS011;18003;-33.830;151.202;2022-08-23T04:27:14;5.90;;;1.42;;
25667;SDS011;18003;-33.830;151.202;2022-08-23T04:29:44;7.20;;;1.65;;
25667;SDS011;18003;-33.830;151.202;2022-08-23T04:32:14;5.62;;;1.60;;
25667;SDS011;18003;-33.830;151.202;2022-08-23T04:34:45;6.65;;;1.52;;
25667;SDS011;18003;-33.830;151.202;2022-08-23T04:37:15;8.93;;;1.60;;
25667;SDS011;18003;-33.830;151.202;2022-08-23T04:39:45;6.10;;;1.30;;
25667;SDS011;18003;-33.830;151.202;2022-08-23T04:42:32;8.38;;;1.52;;
25667;SDS011;18003;-33.830;151.202;2022-08-23T04:45:02;4.40;;;1.12;;
25667;SDS011;18003;-33.830;151.202;2022-08-23T04:47:32;4.50;;;1.17;;
25667;SDS011;18003;-33.830;151.202;2022-08-23T04:50:03;8.45;;;1.20;;
25667;SDS011;18003;-33.830;151.202;2022-08-23T04:52:34;3.65;;;1.27;;
25667;SDS011;18003;-33.830;151.202;2022-08-23T04:55:04;2.92;;;0.90;;
25667;SDS011;18003;-33.830;151.202;2022-08-23T04:57:35;3.77;;;1.10;;
25667;SDS011;18003;-33.830;151.202;2022-08-23T05:00:07;4.20;;;1.10;;
25667;SDS011;18003;-33.830;151.202;2022-08-23T05:02:39;4.17;;;1.12;;
25667;SDS011;18003;-33.830;151.202;2022-08-23T05:05:10;3.72;;;1.17;;
25667;SDS011;18003;-33.830;151.202;2022-08-23T05:07:40;4.47;;;1.05;;
25667;SDS011;18003;-33.830;151.202;2022-08-23T05:10:10;3.62;;;1.00;;
25667;SDS011;18003;-33.830;151.202;2022-08-23T05:15:10;3.72;;;1.10;;
25667;SDS011;18003;-33.830;151.202;2022-08-23T05:17:40;3.85;;;1.10;;
25667;SDS011;18003;-33.830;151.202;2022-08-23T05:20:16;4.60;;;1.20;;
25667;SDS011;18003;-33.830;151.202;2022-08-23T05:22:42;3.72;;;1.10;;
25667;SDS011;18003;-33.830;151.202;2022-08-23T05:25:12;4.45;;;1.20;;
25667;SDS011;18003;-33.830;151.202;2022-08-23T05:27:42;3.60;;;1.20;;
25667;SDS011;18003;-33.830;151.202;2022-08-23T05:30:15;3.30;;;1.25;;
25667;SDS011;18003;-33.830;151.202;2022-08-23T05:32:45;3.02;;;1.00;;
25667;SDS011;18003;-33.830;151.202;2022-08-23T05:35:15;2.12;;;0.95;;
25667;SDS011;18003;-33.830;151.202;2022-08-23T05:37:45;2.00;;;1.00;;
25667;SDS011;18003;-33.830;151.202;2022-08-23T05:40:15;2.52;;;1.00;;
25667;SDS011;18003;-33.830;151.202;2022-08-23T05:42:45;3.08;;;1.15;;
25667;SDS011;18003;-33.830;151.202;2022-08-23T05:45:15;1.57;;;1.00;;
25667;SDS011;18003;-33.830;151.202;2022-08-23T05:47:45;6.50;;;1.27;;
25667;SDS011;18003;-33.830;151.202;2022-08-23T05:50:15;2.33;;;1.20;;
25667;SDS011;18003;-33.830;151.202;2022-08-23T05:52:46;3.67;;;1.30;;
25667;SDS011;18003;-33.830;151.202;2022-08-23T05:55:16;3.72;;;1.20;;
25667;SDS011;18003;-33.830;151.202;2022-08-23T05:57:46;2.95;;;1.10;;
25667;SDS011;18003;-33.830;151.202;2022-08-23T06:00:17;2.75;;;1.10;;
25667;SDS011;18003;-33.830;151.202;2022-08-23T06:02:47;2.58;;;1.20;;
25667;SDS011;18003;-33.830;151.202;2022-08-23T06:05:17;1.90;;;1.27;;
25667;SDS011;18003;-33.830;151.202;2022-08-23T06:07:47;4.80;;;1.20;;
25667;SDS011;18003;-33.830;151.202;2022-08-23T06:10:17;1.87;;;1.20;;
25667;SDS011;18003;-33.830;151.202;2022-08-23T06:12:47;3.85;;;1.10;;
25667;SDS011;18003;-33.830;151.202;2022-08-23T06:15:18;3.50;;;1.10;;
25667;SDS011;18003;-33.830;151.202;2022-08-23T06:17:48;6.95;;;1.32;;
25667;SDS011;18003;-33.830;151.202;2022-08-23T06:20:18;4.08;;;1.30;;
25667;SDS011;18003;-33.830;151.202;2022-08-23T06:22:48;2.72;;;1.10;;
25667;SDS011;18003;-33.830;151.202;2022-08-23T06:25:18;2.55;;;1.12;;
25667;SDS011;18003;-33.830;151.202;2022-08-23T06:27:48;2.70;;;1.20;;
25667;SDS011;18003;-33.830;151.202;2022-08-23T06:30:18;2.47;;;1.30;;
25667;SDS011;18003;-33.830;151.202;2022-08-23T06:32:49;3.05;;;1.20;;
25667;SDS011;18003;-33.830;151.202;2022-08-23T06:35:19;2.08;;;1.22;;
25667;SDS011;18003;-33.830;151.202;2022-08-23T06:37:49;3.08;;;1.25;;
25667;SDS011;18003;-33.830;151.202;2022-08-23T06:40:19;1.30;;;1.10;;
25667;SDS011;18003;-33.830;151.202;2022-08-23T06:42:49;2.22;;;1.17;;
25667;SDS011;18003;-33.830;151.202;2022-08-23T06:45:20;3.00;;;1.02;;
25667;SDS011;18003;-33.830;151.202;2022-08-23T06:47:50;3.08;;;1.30;;
25667;SDS011;18003;-33.830;151.202;2022-08-23T06:50:20;1.57;;;1.00;;
25667;SDS011;18003;-33.830;151.202;2022-08-23T06:52:50;1.30;;;0.93;;
25667;SDS011;18003;-33.830;151.202;2022-08-23T06:55:20;1.30;;;0.80;;
25667;SDS011;18003;-33.830;151.202;2022-08-23T06:57:50;3.10;;;1.20;;
25667;SDS011;18003;-33.830;151.202;2022-08-23T07:00:20;2.08;;;1.15;;
25667;SDS011;18003;-33.830;151.202;2022-08-23T07:02:50;1.80;;;0.93;;
25667;SDS011;18003;-33.830;151.202;2022-08-23T07:05:21;1.37;;;1.10;;
25667;SDS011;18003;-33.830;151.202;2022-08-23T07:07:51;1.42;;;1.02;;
25667;SDS011;18003;-33.830;151.202;2022-08-23T07:10:21;2.47;;;1.20;;
25667;SDS011;18003;-33.830;151.202;2022-08-23T07:12:51;1.10;;;1.00;;
25667;SDS011;18003;-33.830;151.202;2022-08-23T07:15:21;1.10;;;1.00;;
25667;SDS011;18003;-33.830;151.202;2022-08-23T07:17:51;1.20;;;1.00;;
25667;SDS011;18003;-33.830;151.202;2022-08-23T07:20:21;1.57;;;0.90;;
25667;SDS011;18003;-33.830;151.202;2022-08-23T07:22:51;1.20;;;0.90;;
25667;SDS011;18003;-33.830;151.202;2022-08-23T07:25:21;1.32;;;0.80;;
25667;SDS011;18003;-33.830;151.202;2022-08-23T07:27:52;1.17;;;0.97;;
25667;SDS011;18003;-33.830;151.202;2022-08-23T07:30:22;1.65;;;1.00;;
25667;SDS011;18003;-33.830;151.202;2022-08-23T07:32:53;0.90;;;0.90;;
25667;SDS011;18003;-33.830;151.202;2022-08-23T07:35:22;1.27;;;1.00;;
25667;SDS011;18003;-33.830;151.202;2022-08-23T07:37:53;1.30;;;1.00;;
25667;SDS011;18003;-33.830;151.202;2022-08-23T07:40:24;1.35;;;1.25;;
25667;SDS011;18003;-33.830;151.202;2022-08-23T07:42:57;4.03;;;2.42;;
25667;SDS011;18003;-33.830;151.202;2022-08-23T07:45:27;5.85;;;2.40;;
25667;SDS011;18003;-33.830;151.202;2022-08-23T07:47:57;3.40;;;1.95;;
25667;SDS011;18003;-33.830;151.202;2022-08-23T07:50:28;3.00;;;2.00;;
25667;SDS011;18003;-33.830;151.202;2022-08-23T07:52:58;2.67;;;1.80;;
25667;SDS011;18003;-33.830;151.202;2022-08-23T07:55:28;2.90;;;2.58;;
25667;SDS011;18003;-33.830;151.202;2022-08-23T07:57:59;3.50;;;3.00;;
25667;SDS011;18003;-33.830;151.202;2022-08-23T08:00:29;4.40;;;3.20;;
25667;SDS011;18003;-33.830;151.202;2022-08-23T08:02:59;3.60;;;3.27;;
25667;SDS011;18003;-33.830;151.202;2022-08-23T08:05:33;3.00;;;2.70;;
25667;SDS011;18003;-33.830;151.202;2022-08-23T08:08:03;3.33;;;2.00;;
25667;SDS011;18003;-33.830;151.202;2022-08-23T08:10:40;2.63;;;1.70;;
25667;SDS011;18003;-33.830;151.202;2022-08-23T08:13:10;2.75;;;1.50;;
25667;SDS011;18003;-33.830;151.202;2022-08-23T08:15:40;1.32;;;1.17;;
25667;SDS011;18003;-33.830;151.202;2022-08-23T08:18:10;1.02;;;1.02;;
25667;SDS011;18003;-33.830;151.202;2022-08-23T08:20:42;1.07;;;0.90;;
25667;SDS011;18003;-33.830;151.202;2022-08-23T08:23:11;1.82;;;1.30;;
25667;SDS011;18003;-33.830;151.202;2022-08-23T08:25:41;1.70;;;1.10;;
25667;SDS011;18003;-33.830;151.202;2022-08-23T08:28:11;1.37;;;1.10;;
25667;SDS011;18003;-33.830;151.202;2022-08-23T08:30:41;1.70;;;1.05;;
25667;SDS011;18003;-33.830;151.202;2022-08-23T08:33:12;1.35;;;1.00;;
25667;SDS011;18003;-33.830;151.202;2022-08-23T08:35:42;1.17;;;1.17;;
25667;SDS011;18003;-33.830;151.202;2022-08-23T08:38:14;8.25;;;1.80;;
25667;SDS011;18003;-33.830;151.202;2022-08-23T08:40:44;4.53;;;1.20;;
25667;SDS011;18003;-33.830;151.202;2022-08-23T08:43:40;3.55;;;1.30;;
25667;SDS011;18003;-33.830;151.202;2022-08-23T08:46:12;1.98;;;1.30;;
25667;SDS011;18003;-33.830;151.202;2022-08-23T08:48:41;1.70;;;1.20;;
25667;SDS011;18003;-33.830;151.202;2022-08-23T08:53:44;1.57;;;1.42;;
25667;SDS011;18003;-33.830;151.202;2022-08-23T08:58:50;1.40;;;1.30;;
25667;SDS011;18003;-33.830;151.202;2022-08-23T09:01:20;1.40;;;1.30;;
25667;SDS011;18003;-33.830;151.202;2022-08-23T09:03:52;1.45;;;1.10;;
25667;SDS011;18003;-33.830;151.202;2022-08-23T09:06:44;1.17;;;1.05;;
25667;SDS011;18003;-33.830;151.202;2022-08-23T09:13:09;1.27;;;1.15;;
25667;SDS011;18003;-33.830;151.202;2022-08-23T09:17:37;1.57;;;1.10;;
25667;SDS011;18003;-33.830;151.202;2022-08-23T09:20:09;1.47;;;1.20;;
25667;SDS011;18003;-33.830;151.202;2022-08-23T09:25:13;1.90;;;0.90;;
25667;SDS011;18003;-33.830;151.202;2022-08-23T09:27:44;1.30;;;0.93;;
25667;SDS011;18003;-33.830;151.202;2022-08-23T09:30:15;1.05;;;0.90;;
25667;SDS011;18003;-33.830;151.202;2022-08-23T09:32:46;1.52;;;1.10;;
25667;SDS011;18003;-33.830;151.202;2022-08-23T09:35:23;2.47;;;1.20;;
25667;SDS011;18003;-33.830;151.202;2022-08-23T09:37:53;1.05;;;0.95;;
25667;SDS011;18003;-33.830;151.202;2022-08-23T09:40:27;0.82;;;0.82;;
25667;SDS011;18003;-33.830;151.202;2022-08-23T09:43:12;1.80;;;1.10;;
25667;SDS011;18003;-33.830;151.202;2022-08-23T09:48:39;1.10;;;1.00;;
25667;SDS011;18003;-33.830;151.202;2022-08-23T09:51:17;1.65;;;1.15;;
25667;SDS011;18003;-33.830;151.202;2022-08-23T09:54:16;1.40;;;1.30;;
25667;SDS011;18003;-33.830;151.202;2022-08-23T09:56:42;2.65;;;1.30;;
25667;SDS011;18003;-33.830;151.202;2022-08-23T09:59:47;1.72;;;1.37;;
25667;SDS011;18003;-33.830;151.202;2022-08-23T10:01:54;1.57;;;1.10;;
25667;SDS011;18003;-33.830;151.202;2022-08-23T10:04:38;1.15;;;1.07;;
25667;SDS011;18003;-33.830;151.202;2022-08-23T10:07:20;1.42;;;1.32;;
25667;SDS011;18003;-33.830;151.202;2022-08-23T10:10:14;1.70;;;1.00;;
25667;SDS011;18003;-33.830;151.202;2022-08-23T10:12:56;1.12;;;1.02;;
25667;SDS011;18003;-33.830;151.202;2022-08-23T10:15:34;1.32;;;1.20;;
25667;SDS011;18003;-33.830;151.202;2022-08-23T10:18:10;1.47;;;1.37;;
25667;SDS011;18003;-33.830;151.202;2022-08-23T10:21:02;1.22;;;1.12;;
25667;SDS011;18003;-33.830;151.202;2022-08-23T10:23:50;0.90;;;0.90;;
25667;SDS011;18003;-33.830;151.202;2022-08-23T10:26:35;1.20;;;1.10;;
25667;SDS011;18003;-33.830;151.202;2022-08-23T10:29:18;0.90;;;0.90;;
25667;SDS011;18003;-33.830;151.202;2022-08-23T10:34:54;1.55;;;1.02;;
25667;SDS011;18003;-33.830;151.202;2022-08-23T10:40:40;1.00;;;0.90;;
25667;SDS011;18003;-33.830;151.202;2022-08-23T10:43:26;1.00;;;1.00;;
25667;SDS011;18003;-33.830;151.202;2022-08-23T10:45:55;1.80;;;0.90;;
25667;SDS011;18003;-33.830;151.202;2022-08-23T10:51:09;1.67;;;0.85;;
25667;SDS011;18003;-33.830;151.202;2022-08-23T10:53:42;1.20;;;0.90;;
25667;SDS011;18003;-33.830;151.202;2022-08-23T10:56:19;1.98;;;1.00;;
25667;SDS011;18003;-33.830;151.202;2022-08-23T11:01:27;1.20;;;1.10;;
25667;SDS011;18003;-33.830;151.202;2022-08-23T11:04:01;1.30;;;1.20;;
25667;SDS011;18003;-33.830;151.202;2022-08-23T11:11:49;1.85;;;1.25;;
25667;SDS011;18003;-33.830;151.202;2022-08-23T11:14:40;1.42;;;1.32;;
25667;SDS011;18003;-33.830;151.202;2022-08-23T11:17:10;2.83;;;1.50;;
25667;SDS011;18003;-33.830;151.202;2022-08-23T11:19:55;3.37;;;1.72;;
25667;SDS011;18003;-33.830;151.202;2022-08-23T11:34:10;2.12;;;1.40;;
25667;SDS011;18003;-33.830;151.202;2022-08-23T11:36:40;1.40;;;1.30;;
25667;SDS011;18003;-33.830;151.202;2022-08-23T11:39:11;1.98;;;1.50;;
25667;SDS011;18003;-33.830;151.202;2022-08-23T11:44:26;2.27;;;1.20;;
25667;SDS011;18003;-33.830;151.202;2022-08-23T11:52:10;1.57;;;1.45;;
25667;SDS011;18003;-33.830;151.202;2022-08-23T11:57:22;1.30;;;1.20;;
25667;SDS011;18003;-33.830;151.202;2022-08-23T12:00:06;1.40;;;1.30;;
25667;SDS011;18003;-33.830;151.202;2022-08-23T12:03:01;1.92;;;1.30;;
25667;SDS011;18003;-33.830;151.202;2022-08-23T12:05:39;1.25;;;1.15;;
25667;SDS011;18003;-33.830;151.202;2022-08-23T12:18:49;1.57;;;1.40;;
25667;SDS011;18003;-33.830;151.202;2022-08-23T12:21:16;1.92;;;1.57;;
25667;SDS011;18003;-33.830;151.202;2022-08-23T12:24:02;1.70;;;1.45;;
25667;SDS011;18003;-33.830;151.202;2022-08-23T12:29:06;2.80;;;1.50;;
25667;SDS011;18003;-33.830;151.202;2022-08-23T12:37:44;1.67;;;1.50;;
25667;SDS011;18003;-33.830;151.202;2022-08-23T12:39:30;3.12;;;1.40;;
25667;SDS011;18003;-33.830;151.202;2022-08-23T12:44:34;1.82;;;1.57;;
25667;SDS011;18003;-33.830;151.202;2022-08-23T12:47:16;3.22;;;1.80;;
25667;SDS011;18003;-33.830;151.202;2022-08-23T12:49:51;3.05;;;1.70;;
25667;SDS011;18003;-33.830;151.202;2022-08-23T12:52:32;3.30;;;1.80;;
25667;SDS011;18003;-33.830;151.202;2022-08-23T12:55:11;2.12;;;1.62;;
25667;SDS011;18003;-33.830;151.202;2022-08-23T12:57:43;2.52;;;1.72;;
25667;SDS011;18003;-33.830;151.202;2022-08-23T13:00:19;3.58;;;1.75;;
25667;SDS011;18003;-33.830;151.202;2022-08-23T13:02:56;2.05;;;1.55;;
25667;SDS011;18003;-33.830;151.202;2022-08-23T13:05:34;2.92;;;1.80;;
25667;SDS011;18003;-33.830;151.202;2022-08-23T13:08:08;2.58;;;1.52;;
25667;SDS011;18003;-33.830;151.202;2022-08-23T13:13:09;2.37;;;1.60;;
25667;SDS011;18003;-33.830;151.202;2022-08-23T13:15:42;2.87;;;1.70;;
25667;SDS011;18003;-33.830;151.202;2022-08-23T13:23:48;1.82;;;1.50;;
25667;SDS011;18003;-33.830;151.202;2022-08-23T13:29:19;2.75;;;1.55;;
25667;SDS011;18003;-33.830;151.202;2022-08-23T13:31:53;2.40;;;1.60;;
25667;SDS011;18003;-33.830;151.202;2022-08-23T13:37:14;2.43;;;1.80;;
25667;SDS011;18003;-33.830;151.202;2022-08-23T13:40:06;2.58;;;1.90;;
25667;SDS011;18003;-33.830;151.202;2022-08-23T13:44:55;1.80;;;1.60;;
25667;SDS011;18003;-33.830;151.202;2022-08-23T13:47:26;3.17;;;1.87;;
25667;SDS011;18003;-33.830;151.202;2022-08-23T13:49:57;3.10;;;1.50;;
25667;SDS011;18003;-33.830;151.202;2022-08-23T13:52:28;2.55;;;2.00;;
25667;SDS011;18003;-33.830;151.202;2022-08-23T13:54:58;4.05;;;2.00;;
25667;SDS011;18003;-33.830;151.202;2022-08-23T13:57:28;2.22;;;1.80;;
25667;SDS011;18003;-33.830;151.202;2022-08-23T14:00:00;1.87;;;1.60;;
25667;SDS011;18003;-33.830;151.202;2022-08-23T14:02:32;1.95;;;1.65;;
25667;SDS011;18003;-33.830;151.202;2022-08-23T14:05:02;1.67;;;1.42;;
25667;SDS011;18003;-33.830;151.202;2022-08-23T14:07:32;2.35;;;1.50;;
25667;SDS011;18003;-33.830;151.202;2022-08-23T14:10:02;4.15;;;1.65;;
25667;SDS011;18003;-33.830;151.202;2022-08-23T14:12:33;2.62;;;1.65;;
25667;SDS011;18003;-33.830;151.202;2022-08-23T14:15:04;1.62;;;1.50;;
25667;SDS011;18003;-33.830;151.202;2022-08-23T14:17:38;2.87;;;1.60;;
25667;SDS011;18003;-33.830;151.202;2022-08-23T14:22:37;1.60;;;1.50;;
25667;SDS011;18003;-33.830;151.202;2022-08-23T14:25:08;4.50;;;1.50;;
25667;SDS011;18003;-33.830;151.202;2022-08-23T14:27:39;2.05;;;1.52;;
25667;SDS011;18003;-33.830;151.202;2022-08-23T14:30:12;3.27;;;1.47;;
25667;SDS011;18003;-33.830;151.202;2022-08-23T14:32:52;2.43;;;1.50;;
25667;SDS011;18003;-33.830;151.202;2022-08-23T14:35:22;1.70;;;1.60;;
25667;SDS011;18003;-33.830;151.202;2022-08-23T14:37:52;1.65;;;1.40;;
25667;SDS011;18003;-33.830;151.202;2022-08-23T14:40:22;1.87;;;1.50;;
25667;SDS011;18003;-33.830;151.202;2022-08-23T14:42:52;1.82;;;1.27;;
25667;SDS011;18003;-33.830;151.202;2022-08-23T14:45:22;2.08;;;1.30;;
25667;SDS011;18003;-33.830;151.202;2022-08-23T14:47:52;2.83;;;1.42;;
25667;SDS011;18003;-33.830;151.202;2022-08-23T14:50:22;1.55;;;1.20;;
25667;SDS011;18003;-33.830;151.202;2022-08-23T14:52:52;2.58;;;1.35;;
25667;SDS011;18003;-33.830;151.202;2022-08-23T14:55:22;1.47;;;1.37;;
25667;SDS011;18003;-33.830;151.202;2022-08-23T14:57:52;3.35;;;1.27;;
25667;SDS011;18003;-33.830;151.202;2022-08-23T15:00:22;2.25;;;1.47;;
25667;SDS011;18003;-33.830;151.202;2022-08-23T15:02:52;1.85;;;1.40;;
25667;SDS011;18003;-33.830;151.202;2022-08-23T15:05:22;1.50;;;1.35;;
25667;SDS011;18003;-33.830;151.202;2022-08-23T15:07:52;1.85;;;1.47;;
25667;SDS011;18003;-33.830;151.202;2022-08-23T15:10:22;1.87;;;1.40;;
25667;SDS011;18003;-33.830;151.202;2022-08-23T15:12:52;2.45;;;1.50;;
25667;SDS011;18003;-33.830;151.202;2022-08-23T15:15:22;2.52;;;1.60;;
25667;SDS011;18003;-33.830;151.202;2022-08-23T15:17:53;1.65;;;1.37;;
25667;SDS011;18003;-33.830;151.202;2022-08-23T15:20:32;1.98;;;1.40;;
25667;SDS011;18003;-33.830;151.202;2022-08-23T15:22:56;1.70;;;1.30;;
25667;SDS011;18003;-33.830;151.202;2022-08-23T15:25:30;1.10;;;1.10;;
25667;SDS011;18003;-33.830;151.202;2022-08-23T15:28:01;2.80;;;1.30;;
25667;SDS011;18003;-33.830;151.202;2022-08-23T15:30:32;1.63;;;1.30;;
25667;SDS011;18003;-33.830;151.202;2022-08-23T15:33:02;1.90;;;1.30;;
25667;SDS011;18003;-33.830;151.202;2022-08-23T15:35:37;3.98;;;1.50;;
25667;SDS011;18003;-33.830;151.202;2022-08-23T15:38:07;1.65;;;1.40;;
25667;SDS011;18003;-33.830;151.202;2022-08-23T15:40:38;2.30;;;1.37;;
25667;SDS011;18003;-33.830;151.202;2022-08-23T15:43:08;2.45;;;1.47;;
25667;SDS011;18003;-33.830;151.202;2022-08-23T15:45:38;2.75;;;1.45;;
25667;SDS011;18003;-33.830;151.202;2022-08-23T15:48:14;1.70;;;1.32;;
25667;SDS011;18003;-33.830;151.202;2022-08-23T15:50:49;1.50;;;1.40;;
25667;SDS011;18003;-33.830;151.202;2022-08-23T15:53:19;3.17;;;1.65;;
25667;SDS011;18003;-33.830;151.202;2022-08-23T15:55:49;2.77;;;1.60;;
25667;SDS011;18003;-33.830;151.202;2022-08-23T15:58:21;2.43;;;1.40;;
25667;SDS011;18003;-33.830;151.202;2022-08-23T16:03:21;1.92;;;1.50;;
25667;SDS011;18003;-33.830;151.202;2022-08-23T16:05:51;2.12;;;1.40;;
25667;SDS011;18003;-33.830;151.202;2022-08-23T16:08:28;3.17;;;1.50;;
25667;SDS011;18003;-33.830;151.202;2022-08-23T16:10:54;3.17;;;1.50;;
25667;SDS011;18003;-33.830;151.202;2022-08-23T16:13:25;3.52;;;1.57;;
25667;SDS011;18003;-33.830;151.202;2022-08-23T16:15:55;3.47;;;1.60;;
25667;SDS011;18003;-33.830;151.202;2022-08-23T16:18:25;3.00;;;1.40;;
25667;SDS011;18003;-33.830;151.202;2022-08-23T16:20:56;2.17;;;1.30;;
25667;SDS011;18003;-33.830;151.202;2022-08-23T16:23:26;1.53;;;1.40;;
25667;SDS011;18003;-33.830;151.202;2022-08-23T16:25:56;1.85;;;1.30;;
25667;SDS011;18003;-33.830;151.202;2022-08-23T16:28:26;3.72;;;1.70;;